Time;durP1;ratioP1;P1;durP2;ratioP2;P2;SDS_P1;SDS_P2;PMS_P1;PMS_P2;Temp;Humidity;BMP_temperature;BMP_pressure;BME280_temperature;BME280_humidity;BME280_pressure;Samples;Min_cycle;Max_cycle;Signal;HPM_P1;HPM_P2
2023/10/26 00:00:14;;;;;;;11.87;1.50;;;13.00;99.90;;;;;;5050669;28;20479;-62
2023/10/26 00:02:40;;;;;;;2.40;1.50;;;13.00;99.90;;;;;;5052462;28;20550;-63
2023/10/26 00:05:08;;;;;;;5.90;1.33;;;13.00;99.90;;;;;;5052722;28;20497;-61
2023/10/26 00:07:35;;;;;;;1.90;1.30;;;13.00;99.90;;;;;;5052230;28;20477;-62
2023/10/26 00:10:02;;;;;;;8.27;1.50;;;13.00;99.90;;;;;;5054645;28;20469;-62
2023/10/26 00:12:30;;;;;;;17.13;1.63;;;12.90;99.90;;;;;;5063561;28;20581;-63
2023/10/26 00:14:57;;;;;;;2.40;1.80;;;12.80;99.90;;;;;;5048975;28;20481;-61
2023/10/26 00:17:24;;;;;;;1.90;1.37;;;12.90;99.90;;;;;;5068761;28;20483;-63
2023/10/26 00:19:52;;;;;;;1.90;1.13;;;;;;;;;;5052125;28;20572;-63
2023/10/26 00:22:19;;;;;;;3.30;1.60;;;12.90;99.90;;;;;;5065755;28;20482;-62
2023/10/26 00:24:45;;;;;;;11.77;1.63;;;12.90;99.90;;;;;;5050517;28;20484;-63
2023/10/26 00:27:12;;;;;;;2.53;0.90;;;13.00;99.90;;;;;;5063286;28;20573;-62
2023/10/26 00:29:41;;;;;;;7.70;1.60;;;12.90;99.90;;;;;;5044198;28;20563;-63
2023/10/26 00:32:08;;;;;;;6.13;1.57;;;;;;;;;;5072824;28;20490;-64
2023/10/26 00:34:35;;;;;;;1.80;1.10;;;12.80;99.90;;;;;;5048059;28;20477;-62
2023/10/26 00:37:02;;;;;;;1.93;1.40;;;12.90;99.90;;;;;;5051631;28;20558;-62
2023/10/26 00:39:29;;;;;;;2.40;1.60;;;13.00;99.90;;;;;;5049708;28;20566;-62
2023/10/26 00:41:56;;;;;;;2.77;1.60;;;12.90;99.90;;;;;;5049382;28;20583;-62
2023/10/26 00:44:24;;;;;;;2.00;1.00;;;12.80;99.90;;;;;;5068661;28;20455;-62
2023/10/26 00:46:54;;;;;;;3.47;1.40;;;12.80;99.90;;;;;;5033499;28;21461;-62
2023/10/26 00:49:21;;;;;;;2.50;1.67;;;12.80;99.90;;;;;;5049594;28;20550;-62
2023/10/26 00:51:51;;;;;;;3.90;1.50;;;12.80;99.90;;;;;;5065630;28;21033;-61
2023/10/26 00:54:20;;;;;;;2.10;1.40;;;12.80;99.90;;;;;;5047222;28;20576;-63
2023/10/26 00:56:49;;;;;;;2.33;1.77;;;12.70;99.90;;;;;;5063959;28;20617;-62
2023/10/26 00:59:17;;;;;;;13.37;2.10;;;12.80;99.90;;;;;;5059261;28;20550;-62
2023/10/26 01:01:46;;;;;;;2.57;1.67;;;12.70;99.90;;;;;;5057585;28;20813;-62
2023/10/26 01:04:15;;;;;;;3.10;1.40;;;12.80;99.90;;;;;;5067777;28;20479;-62
2023/10/26 01:06:41;;;;;;;14.43;2.30;;;12.80;99.90;;;;;;5044664;28;20475;-62
2023/10/26 01:09:09;;;;;;;2.43;1.50;;;;;;;;;;5050495;28;20606;-62
2023/10/26 01:11:37;;;;;;;2.30;1.50;;;12.90;99.90;;;;;;5048065;28;20475;-62
2023/10/26 01:14:03;;;;;;;7.93;1.90;;;12.90;99.90;;;;;;5048277;28;20477;-62
2023/10/26 01:16:31;;;;;;;2.57;1.17;;;12.90;99.90;;;;;;5058494;28;20471;-61
2023/10/26 01:18:59;;;;;;;5.60;1.67;;;12.90;99.90;;;;;;5072754;28;20825;-61
2023/10/26 01:21:29;;;;;;;4.73;1.40;;;12.90;99.90;;;;;;5046642;28;20958;-62
2023/10/26 01:23:57;;;;;;;3.07;1.70;;;12.90;99.90;;;;;;5049619;28;20479;-62
2023/10/26 01:26:24;;;;;;;3.10;2.17;;;12.80;99.90;;;;;;5048094;28;20778;-62
2023/10/26 01:28:51;;;;;;;3.83;1.60;;;12.80;99.90;;;;;;5064540;28;20476;-61
2023/10/26 01:31:19;;;;;;;5.43;1.27;;;12.90;99.90;;;;;;5051446;28;20993;-62
2023/10/26 01:33:46;;;;;;;8.03;2.17;;;12.90;99.90;;;;;;5054935;28;20475;-62
2023/10/26 01:36:13;;;;;;;4.40;1.47;;;13.00;99.90;;;;;;5062233;28;20577;-61
2023/10/26 01:38:41;;;;;;;4.70;1.90;;;13.00;99.90;;;;;;5082540;28;20487;-62
2023/10/26 01:41:08;;;;;;;4.20;1.83;;;12.80;99.90;;;;;;5060170;28;20532;-62
2023/10/26 01:43:35;;;;;;;2.60;1.27;;;12.80;99.90;;;;;;5061884;28;20827;-63
2023/10/26 01:46:01;;;;;;;3.10;1.30;;;12.90;99.90;;;;;;5061177;28;21499;-62
2023/10/26 01:48:28;;;;;;;7.33;1.47;;;13.00;99.90;;;;;;5075063;28;20539;-62
2023/10/26 01:50:55;;;;;;;2.07;1.30;;;13.00;99.90;;;;;;5061976;28;20912;-63
2023/10/26 01:53:23;;;;;;;4.50;1.03;;;13.00;99.90;;;;;;5079320;27;20481;-61
2023/10/26 01:55:51;;;;;;;13.20;1.47;;;13.00;99.90;;;;;;5055063;28;20942;-62
2023/10/26 01:58:18;;;;;;;6.50;1.10;;;13.10;99.90;;;;;;5060911;28;20487;-62
2023/10/26 02:00:45;;;;;;;1.63;1.00;;;13.10;99.90;;;;;;5056076;28;20458;-61
2023/10/26 02:03:21;;;;;;;7.87;2.03;;;13.20;99.90;;;;;;5059809;28;20477;-62
2023/10/26 02:05:48;;;;;;;5.10;1.40;;;13.20;99.90;;;;;;5050696;28;20485;-62
2023/10/26 02:08:15;;;;;;;19.73;2.10;;;;;;;;;;5074739;28;20471;-62
2023/10/26 02:10:42;;;;;;;1.93;1.10;;;13.20;99.90;;;;;;5076660;28;20480;-62
2023/10/26 02:13:11;;;;;;;2.23;0.87;;;13.20;99.90;;;;;;5061800;28;20498;-63
2023/10/26 02:15:38;;;;;;;4.20;1.07;;;13.30;99.90;;;;;;5053143;28;20482;-62
2023/10/26 02:18:05;;;;;;;18.63;2.40;;;13.30;99.90;;;;;;5062745;28;20561;-62
2023/10/26 02:20:31;;;;;;;2.67;1.10;;;13.40;99.90;;;;;;5058806;28;20574;-63
2023/10/26 02:22:58;;;;;;;1.70;0.80;;;13.40;99.90;;;;;;5059592;28;20478;-62
2023/10/26 02:25:25;;;;;;;1.70;0.70;;;13.50;99.90;;;;;;5061401;28;20561;-62
2023/10/26 02:27:52;;;;;;;1.77;0.70;;;13.50;99.90;;;;;;5060408;28;20474;-62
2023/10/26 02:30:20;;;;;;;3.00;0.90;;;13.50;99.90;;;;;;5068111;28;20486;-62
2023/10/26 02:32:47;;;;;;;2.00;1.00;;;13.50;99.90;;;;;;5062131;28;20575;-62
2023/10/26 02:35:15;;;;;;;1.80;1.00;;;13.50;99.90;;;;;;5061903;28;20454;-63
2023/10/26 02:37:41;;;;;;;1.80;0.70;;;13.40;99.90;;;;;;5061158;28;20483;-62
2023/10/26 02:40:09;;;;;;;1.80;0.70;;;13.40;99.90;;;;;;5052177;28;20949;-62
2023/10/26 02:42:38;;;;;;;12.73;1.43;;;13.40;99.90;;;;;;5086187;28;20562;-62
2023/10/26 02:45:06;;;;;;;1.60;0.77;;;13.40;99.90;;;;;;5059896;28;20843;-62
2023/10/26 02:47:34;;;;;;;1.60;0.80;;;13.40;99.90;;;;;;5061160;28;20503;-62
2023/10/26 02:50:01;;;;;;;2.97;0.93;;;13.40;99.90;;;;;;5062087;28;20488;-62
2023/10/26 02:52:28;;;;;;;2.13;0.83;;;13.40;99.90;;;;;;5077567;28;20591;-62
2023/10/26 02:54:55;;;;;;;1.57;0.73;;;13.40;99.90;;;;;;5057444;28;20478;-63
2023/10/26 02:57:31;;;;;;;1.70;0.80;;;13.30;99.90;;;;;;5057994;28;20579;-62
2023/10/26 02:59:58;;;;;;;6.17;1.10;;;13.30;99.90;;;;;;5055793;28;20482;-63
2023/10/26 03:02:24;;;;;;;2.03;0.97;;;13.30;99.90;;;;;;5075480;28;20558;-63
2023/10/26 03:04:52;;;;;;;1.60;0.70;;;13.30;99.90;;;;;;5060814;28;20483;-63
2023/10/26 03:07:22;;;;;;;1.60;0.70;;;13.30;99.90;;;;;;5078488;28;20590;-64
2023/10/26 03:09:49;;;;;;;1.90;0.90;;;13.30;99.90;;;;;;5058231;28;20483;-62
2023/10/26 03:12:16;;;;;;;7.33;1.10;;;13.30;99.90;;;;;;5065830;28;20473;-61
2023/10/26 03:14:43;;;;;;;5.30;1.13;;;13.20;99.90;;;;;;5065682;28;20584;-61
2023/10/26 03:17:15;;;;;;;6.90;0.97;;;13.20;99.90;;;;;;5085688;28;20463;-62
2023/10/26 03:19:41;;;;;;;1.70;0.87;;;13.20;99.90;;;;;;5059867;28;20478;-62
2023/10/26 03:22:10;;;;;;;1.60;0.80;;;13.10;99.90;;;;;;5058460;28;20479;-62
2023/10/26 03:24:36;;;;;;;2.00;1.10;;;13.10;99.90;;;;;;5057388;28;21014;-62
2023/10/26 03:27:03;;;;;;;7.20;1.37;;;13.10;99.90;;;;;;5081215;28;20471;-61
2023/10/26 03:29:30;;;;;;;2.97;1.60;;;13.00;99.90;;;;;;5053678;28;20548;-63
2023/10/26 03:31:58;;;;;;;3.30;1.23;;;13.10;99.90;;;;;;5058370;28;20471;-63
2023/10/26 03:34:24;;;;;;;1.87;1.20;;;13.10;99.90;;;;;;5070305;28;20523;-63
2023/10/26 03:36:51;;;;;;;2.27;1.20;;;13.10;99.90;;;;;;5056433;28;20569;-63
2023/10/26 03:39:19;;;;;;;2.63;1.53;;;13.20;99.90;;;;;;5056524;28;20665;-63
2023/10/26 03:41:46;;;;;;;5.60;1.53;;;13.20;99.90;;;;;;5058464;28;20514;-63
2023/10/26 03:44:13;;;;;;;2.40;1.40;;;13.20;99.90;;;;;;5055404;28;20473;-63
2023/10/26 03:46:39;;;;;;;7.87;1.80;;;13.20;99.90;;;;;;5081791;28;20926;-63
2023/10/26 03:49:06;;;;;;;5.97;1.83;;;13.30;99.90;;;;;;5060247;28;20572;-63
2023/10/26 03:51:33;;;;;;;6.63;1.60;;;13.30;99.90;;;;;;5080683;28;20489;-63
2023/10/26 03:54:00;;;;;;;2.77;1.63;;;13.30;99.90;;;;;;5059130;28;20559;-63
2023/10/26 03:56:28;;;;;;;2.63;2.00;;;13.30;99.90;;;;;;5060153;28;20473;-63
2023/10/26 03:58:55;;;;;;;11.37;2.73;;;13.30;99.90;;;;;;5059224;28;20497;-63
2023/10/26 04:01:22;;;;;;;4.93;2.03;;;13.30;99.90;;;;;;5028707;28;20563;-63
2023/10/26 04:03:49;;;;;;;2.30;1.90;;;13.20;99.90;;;;;;5074866;28;21535;-63
2023/10/26 04:06:15;;;;;;;2.10;1.70;;;13.20;99.90;;;;;;5058341;28;20493;-63
2023/10/26 04:08:42;;;;;;;3.30;1.97;;;13.20;99.90;;;;;;5048834;28;20489;-63
2023/10/26 04:11:09;;;;;;;1.80;1.27;;;13.20;99.90;;;;;;5060482;28;21033;-63
2023/10/26 04:13:38;;;;;;;2.20;1.70;;;13.30;99.90;;;;;;5055553;28;20481;-62
2023/10/26 04:16:07;;;;;;;2.57;2.10;;;13.30;99.90;;;;;;5051574;28;20566;-62
2023/10/26 04:18:34;;;;;;;6.43;2.77;;;13.40;99.90;;;;;;5043036;28;20983;-61
2023/10/26 04:21:01;;;;;;;10.10;2.83;;;13.40;99.90;;;;;;5057423;28;20569;-60
2023/10/26 04:23:28;;;;;;;4.53;3.07;;;;;;;;;;5071548;28;20580;-60
2023/10/26 04:25:55;;;;;;;14.73;3.07;;;13.50;99.90;;;;;;5078020;28;20475;-61
2023/10/26 04:28:21;;;;;;;2.67;1.60;;;13.50;99.90;;;;;;5051593;28;21363;-60
2023/10/26 04:30:50;;;;;;;3.07;2.13;;;13.60;99.90;;;;;;5082759;28;20566;-61
2023/10/26 04:33:18;;;;;;;4.33;2.53;;;13.60;99.90;;;;;;5060849;28;20724;-60
2023/10/26 04:35:45;;;;;;;20.43;2.73;;;13.60;99.90;;;;;;5058648;28;20486;-61
2023/10/26 04:38:12;;;;;;;3.83;3.00;;;13.60;99.90;;;;;;5054468;28;20475;-61
2023/10/26 04:40:40;;;;;;;3.30;2.73;;;13.70;99.90;;;;;;5057194;28;20486;-60
2023/10/26 04:43:08;;;;;;;3.13;2.40;;;13.60;99.90;;;;;;5079697;28;20483;-61
2023/10/26 04:45:35;;;;;;;2.97;2.13;;;13.60;99.90;;;;;;5056809;28;20571;-61
2023/10/26 04:48:03;;;;;;;5.43;2.60;;;13.40;99.90;;;;;;5075068;28;20493;-60
2023/10/26 04:50:30;;;;;;;2.80;2.23;;;13.40;99.90;;;;;;5057386;28;20573;-60
2023/10/26 04:52:58;;;;;;;3.30;2.20;;;13.40;99.90;;;;;;5058643;28;21173;-60
2023/10/26 04:55:30;;;;;;;7.30;2.80;;;13.40;99.90;;;;;;5055338;28;20831;-61
2023/10/26 04:57:57;;;;;;;6.27;2.50;;;;;;;;;;5059230;28;20475;-60
2023/10/26 05:00:23;;;;;;;8.07;3.07;;;13.40;99.90;;;;;;5052199;28;20551;-62
2023/10/26 05:02:50;;;;;;;3.30;2.30;;;13.40;99.90;;;;;;5067310;28;20507;-62
2023/10/26 05:05:18;;;;;;;3.17;2.27;;;13.30;99.90;;;;;;5058694;28;20489;-62
2023/10/26 05:07:46;;;;;;;7.10;2.57;;;13.40;99.90;;;;;;5072023;28;20562;-63
2023/10/26 05:10:12;;;;;;;10.70;3.00;;;13.50;99.90;;;;;;5055176;28;20754;-62
2023/10/26 05:12:39;;;;;;;3.00;2.30;;;13.50;99.90;;;;;;5058735;28;21260;-63
2023/10/26 05:15:08;;;;;;;5.87;2.40;;;13.40;99.90;;;;;;5049086;28;21398;-63
2023/10/26 05:17:37;;;;;;;4.13;2.37;;;13.00;99.90;;;;;;5055810;28;20754;-63
2023/10/26 05:20:04;;;;;;;2.83;2.17;;;12.90;99.90;;;;;;5058623;28;20485;-63
2023/10/26 05:22:33;;;;;;;3.70;1.60;;;12.70;99.90;;;;;;5062477;28;21038;-63
2023/10/26 05:25:04;;;;;;;2.50;1.43;;;12.60;99.90;;;;;;5060281;28;20510;-62
2023/10/26 05:27:31;;;;;;;9.37;2.20;;;12.40;99.90;;;;;;5046742;28;20479;-62
2023/10/26 05:29:57;;;;;;;11.00;2.43;;;12.40;99.90;;;;;;5084219;28;21001;-63
2023/10/26 05:32:24;;;;;;;4.50;2.57;;;12.20;99.90;;;;;;5059337;28;20470;-63
2023/10/26 05:34:51;;;;;;;9.17;2.10;;;12.20;99.90;;;;;;5055212;28;20558;-63
2023/10/26 05:37:18;;;;;;;2.47;1.93;;;12.10;99.90;;;;;;5058642;28;20499;-63
2023/10/26 05:39:46;;;;;;;2.33;1.87;;;12.10;99.90;;;;;;5074662;28;20562;-60
2023/10/26 05:42:13;;;;;;;5.93;2.00;;;12.10;99.90;;;;;;5051233;28;20580;-61
2023/10/26 05:44:39;;;;;;;7.53;2.57;;;12.10;99.90;;;;;;5075382;28;20484;-61
2023/10/26 05:47:06;;;;;;;5.03;2.03;;;12.10;99.90;;;;;;5055985;28;20536;-61
2023/10/26 05:49:35;;;;;;;4.43;1.70;;;;;;;;;;5062871;28;20565;-60
2023/10/26 05:52:03;;;;;;;4.30;1.50;;;12.20;99.90;;;;;;5072353;28;20549;-61
2023/10/26 05:54:30;;;;;;;2.50;1.70;;;12.10;99.90;;;;;;5070469;28;21098;-60
2023/10/26 05:57:00;;;;;;;2.93;1.80;;;12.00;99.90;;;;;;5054141;28;20490;-61
2023/10/26 05:59:26;;;;;;;2.20;1.77;;;12.00;99.90;;;;;;5063962;28;20469;-60
2023/10/26 06:01:53;;;;;;;2.70;1.53;;;12.10;99.90;;;;;;5062502;28;20926;-60
2023/10/26 06:04:20;;;;;;;7.13;1.93;;;12.10;99.90;;;;;;5067543;28;21002;-61
2023/10/26 06:06:47;;;;;;;1.80;1.40;;;12.10;99.90;;;;;;5071052;28;21092;-60
2023/10/26 06:09:13;;;;;;;11.13;1.93;;;12.10;99.90;;;;;;5059134;28;21039;-60
2023/10/26 06:11:41;;;;;;;2.27;1.43;;;12.10;99.90;;;;;;5056785;28;20532;-60
2023/10/26 06:14:10;;;;;;;3.83;1.70;;;12.20;99.90;;;;;;5072896;28;20479;-60
2023/10/26 06:16:36;;;;;;;7.10;1.60;;;12.30;99.90;;;;;;5061114;28;20567;-60
2023/10/26 06:19:03;;;;;;;10.10;1.83;;;12.40;99.90;;;;;;5064801;28;21128;-60
2023/10/26 06:21:32;;;;;;;2.73;1.90;;;12.50;99.90;;;;;;5062567;28;20518;-60
2023/10/26 06:23:58;;;;;;;2.70;1.30;;;12.50;99.90;;;;;;5058834;28;20494;-60
2023/10/26 06:26:25;;;;;;;2.03;1.40;;;12.60;99.90;;;;;;5069526;28;20553;-61
2023/10/26 06:28:53;;;;;;;1.87;1.60;;;12.60;99.90;;;;;;5065423;28;20483;-60
2023/10/26 06:31:21;;;;;;;2.67;1.60;;;12.60;99.90;;;;;;5073733;28;20479;-60
2023/10/26 06:33:48;;;;;;;4.73;1.83;;;12.70;99.90;;;;;;5078565;28;20461;-61
2023/10/26 06:36:15;;;;;;;2.00;1.40;;;12.60;99.90;;;;;;5055749;28;20572;-60
2023/10/26 06:38:42;;;;;;;3.40;1.77;;;12.70;99.90;;;;;;5068803;28;20563;-60
2023/10/26 06:41:10;;;;;;;2.23;1.20;;;12.80;99.90;;;;;;5064570;28;20561;-60
2023/10/26 06:43:37;;;;;;;11.40;2.13;;;12.90;99.90;;;;;;5062587;28;20482;-61
2023/10/26 06:46:05;;;;;;;1.83;1.13;;;13.00;99.90;;;;;;5054766;28;20489;-61
2023/10/26 06:48:33;;;;;;;3.03;1.70;;;13.00;99.90;;;;;;5052652;28;20554;-62
2023/10/26 06:51:01;;;;;;;5.40;1.70;;;13.10;99.90;;;;;;5068118;28;20548;-62
2023/10/26 06:53:29;;;;;;;9.80;2.00;;;13.10;99.90;;;;;;5069865;28;20484;-62
2023/10/26 06:55:56;;;;;;;2.93;1.30;;;13.10;99.90;;;;;;5083549;28;20477;-62
2023/10/26 06:58:23;;;;;;;3.10;1.30;;;13.20;99.90;;;;;;5067864;28;20464;-60
2023/10/26 07:00:49;;;;;;;3.50;1.50;;;13.20;99.90;;;;;;5053035;28;20481;-61
2023/10/26 07:03:16;;;;;;;2.33;1.70;;;13.30;99.90;;;;;;5061183;28;20997;-61
2023/10/26 07:05:44;;;;;;;8.70;2.30;;;13.30;99.90;;;;;;5060264;28;21626;-60
2023/10/26 07:08:11;;;;;;;2.83;1.60;;;13.10;99.90;;;;;;5060895;28;20562;-60
2023/10/26 07:10:40;;;;;;;2.77;1.50;;;13.00;99.90;;;;;;5060333;28;20562;-60
2023/10/26 07:13:08;;;;;;;36.80;21.43;;;;;;;;;;5061363;28;21026;-60
2023/10/26 07:15:36;;;;;;;8.70;5.70;;;13.10;99.90;;;;;;5038062;28;20484;-61
2023/10/26 07:18:02;;;;;;;9.23;3.43;;;13.10;99.90;;;;;;5058826;28;20475;-61
2023/10/26 07:20:29;;;;;;;3.40;2.70;;;13.20;99.90;;;;;;5050149;28;21060;-61
2023/10/26 07:22:58;;;;;;;2.20;1.30;;;13.20;99.90;;;;;;5077534;28;20485;-61
2023/10/26 07:25:24;;;;;;;7.60;3.57;;;13.20;99.90;;;;;;5065169;28;20483;-62
2023/10/26 07:27:51;;;;;;;2.70;2.17;;;13.20;99.90;;;;;;5059833;28;20842;-61
2023/10/26 07:30:18;;;;;;;4.57;2.90;;;13.30;99.90;;;;;;5057192;28;20489;-62
2023/10/26 07:32:45;;;;;;;3.20;2.37;;;13.20;99.90;;;;;;5082667;28;20458;-61
2023/10/26 07:35:14;;;;;;;4.00;1.80;;;13.20;99.90;;;;;;5061179;28;20487;-61
2023/10/26 07:37:41;;;;;;;3.50;2.47;;;13.10;99.90;;;;;;5059305;28;20466;-61
2023/10/26 07:40:10;;;;;;;7.10;2.60;;;13.10;99.90;;;;;;5074298;28;20484;-61
2023/10/26 07:42:37;;;;;;;5.03;4.37;;;13.20;99.90;;;;;;5065732;28;20581;-62
2023/10/26 07:45:06;;;;;;;4.17;2.80;;;13.20;99.90;;;;;;5074610;28;20498;-61
2023/10/26 07:47:33;;;;;;;8.17;3.40;;;13.30;99.90;;;;;;5075838;28;20473;-60
2023/10/26 07:50:00;;;;;;;2.40;1.73;;;13.40;99.90;;;;;;5063330;28;20564;-60
2023/10/26 07:52:26;;;;;;;9.83;2.60;;;13.40;99.90;;;;;;5082156;27;20473;-61
2023/10/26 07:54:53;;;;;;;2.50;2.00;;;13.40;99.90;;;;;;5061965;28;20559;-61
2023/10/26 07:57:21;;;;;;;2.87;1.73;;;13.40;99.90;;;;;;5059987;28;20565;-62
2023/10/26 07:59:48;;;;;;;10.83;2.13;;;13.10;99.90;;;;;;5073074;28;20534;-62
2023/10/26 08:02:15;;;;;;;13.87;2.50;;;13.00;99.90;;;;;;5063309;28;21011;-62
2023/10/26 08:04:42;;;;;;;4.77;2.37;;;12.90;99.90;;;;;;5072218;28;20485;-61
2023/10/26 08:07:09;;;;;;;2.77;2.00;;;12.90;99.90;;;;;;5083724;28;20540;-62
2023/10/26 08:09:36;;;;;;;4.93;1.83;;;13.00;99.90;;;;;;5059096;28;20478;-62
2023/10/26 08:12:03;;;;;;;3.30;1.97;;;13.00;99.90;;;;;;5060679;28;20473;-62
2023/10/26 08:14:31;;;;;;;3.83;2.03;;;13.00;99.90;;;;;;5078417;28;20481;-62
2023/10/26 08:16:59;;;;;;;3.20;2.00;;;13.00;99.90;;;;;;5081018;28;20509;-62
2023/10/26 08:19:26;;;;;;;10.47;3.67;;;13.10;99.90;;;;;;5065905;28;20874;-62
2023/10/26 08:21:53;;;;;;;18.90;3.23;;;13.20;99.90;;;;;;5034755;28;20514;-62
2023/10/26 08:24:20;;;;;;;2.77;1.77;;;13.20;99.90;;;;;;5067139;28;20572;-62
2023/10/26 08:26:56;;;;;;;30.27;3.50;;;13.30;99.90;;;;;;5059140;28;20989;-62
2023/10/26 08:29:24;;;;;;;8.43;3.00;;;13.40;99.90;;;;;;5055413;28;20516;-62
2023/10/26 08:31:52;;;;;;;4.17;1.80;;;13.40;99.90;;;;;;5031311;28;20530;-62
2023/10/26 08:34:19;;;;;;;2.40;2.03;;;13.50;99.90;;;;;;5086797;28;20474;-62
2023/10/26 08:36:46;;;;;;;8.93;4.20;;;13.60;99.90;;;;;;5074539;28;20888;-62
2023/10/26 08:39:13;;;;;;;9.83;2.70;;;13.60;99.90;;;;;;5049773;28;20852;-63
2023/10/26 08:41:43;;;;;;;7.27;6.27;;;13.70;99.90;;;;;;5075311;28;20578;-62
2023/10/26 08:44:10;;;;;;;5.50;4.77;;;13.70;99.90;;;;;;5054606;28;20566;-63
2023/10/26 08:46:37;;;;;;;3.43;3.10;;;13.70;99.90;;;;;;5057166;28;21552;-63
2023/10/26 08:49:09;;;;;;;4.50;4.10;;;13.80;99.90;;;;;;5069432;28;20984;-62
2023/10/26 08:51:37;;;;;;;8.53;3.03;;;;;;;;;;5075511;28;20592;-62
2023/10/26 08:54:03;;;;;;;20.47;5.80;;;13.90;99.90;;;;;;5061706;28;20597;-62
2023/10/26 08:56:30;;;;;;;6.93;5.20;;;14.00;99.90;;;;;;5032287;28;20479;-62
2023/10/26 08:58:59;;;;;;;5.50;3.73;;;14.00;99.90;;;;;;5063255;28;21058;-62
2023/10/26 09:01:35;;;;;;;8.80;3.50;;;14.10;99.90;;;;;;5071077;28;20482;-62
2023/10/26 09:04:19;;;;;;;3.10;2.10;;;13.80;99.90;;;;;;5066896;28;20600;-62
2023/10/26 09:06:48;;;;;;;2.80;2.60;;;13.60;99.90;;;;;;5049316;28;21186;-62
2023/10/26 09:09:16;;;;;;;8.03;2.00;;;13.40;99.90;;;;;;5052492;28;20514;-64
2023/10/26 09:11:43;;;;;;;3.60;1.90;;;13.20;99.90;;;;;;5058958;28;20905;-64
2023/10/26 09:14:17;;;;;;;2.83;1.83;;;13.30;99.90;;;;;;5058818;28;20553;-64
2023/10/26 09:16:45;;;;;;;3.83;1.73;;;13.40;99.90;;;;;;5075096;28;20562;-63
2023/10/26 09:19:14;;;;;;;5.10;1.77;;;13.40;99.90;;;;;;5063983;28;20454;-64
2023/10/26 09:21:51;;;;;;;15.03;2.67;;;13.40;99.90;;;;;;5056613;28;20473;-63
2023/10/26 09:24:21;;;;;;;2.30;1.40;;;13.50;99.90;;;;;;5086129;28;20999;-63
2023/10/26 09:26:48;;;;;;;2.33;1.57;;;13.50;99.90;;;;;;5045034;28;20484;-63
2023/10/26 09:29:15;;;;;;;9.43;2.53;;;13.50;99.90;;;;;;5073632;28;20490;-64
2023/10/26 09:31:53;;;;;;;1.93;1.30;;;13.40;99.90;;;;;;5056585;28;20503;-63
2023/10/26 09:34:24;;;;;;;2.30;1.97;;;13.30;99.90;;;;;;5065294;28;20484;-63
2023/10/26 09:37:01;;;;;;;2.63;1.93;;;13.30;99.90;;;;;;5048388;28;20473;-63
2023/10/26 09:39:30;;;;;;;3.00;1.53;;;13.30;99.90;;;;;;5055705;28;20550;-63
2023/10/26 09:41:59;;;;;;;2.00;1.20;;;13.30;99.90;;;;;;5037101;28;20562;-63
2023/10/26 09:44:25;;;;;;;20.67;2.27;;;13.40;99.90;;;;;;5073040;28;20530;-63
2023/10/26 09:46:53;;;;;;;2.10;1.30;;;13.40;99.90;;;;;;5075261;28;21038;-63
2023/10/26 09:49:23;;;;;;;15.17;2.30;;;13.40;99.90;;;;;;5072695;28;20540;-63
2023/10/26 09:51:50;;;;;;;2.80;1.70;;;13.40;99.90;;;;;;5053235;28;21078;-63
2023/10/26 09:54:19;;;;;;;4.30;1.77;;;13.50;99.90;;;;;;5073485;28;20474;-63
2023/10/26 09:56:50;;;;;;;7.63;1.77;;;13.50;99.90;;;;;;5048937;28;20573;-63
2023/10/26 09:59:17;;;;;;;2.47;1.40;;;13.60;99.90;;;;;;5051594;28;20483;-63
2023/10/26 10:01:45;;;;;;;2.43;1.47;;;13.50;99.90;;;;;;5050047;28;20560;-63
2023/10/26 10:04:36;;;;;;;1.70;1.00;;;13.50;99.90;;;;;;5051196;28;20478;-63
2023/10/26 10:07:04;;;;;;;2.47;1.40;;;13.60;99.90;;;;;;5076538;28;20589;-63
2023/10/26 10:09:31;;;;;;;1.73;0.90;;;13.70;99.90;;;;;;5068046;28;20509;-63
2023/10/26 10:12:31;;;;;;;11.73;1.80;;;14.00;99.90;;;;;;5078925;28;21053;-63
2023/10/26 10:15:00;;;;;;;10.00;3.97;;;14.10;99.90;;;;;;5077775;28;20477;-63
2023/10/26 10:18:00;;;;;;;7.37;1.50;;;14.20;99.90;;;;;;5057804;28;20477;-63
2023/10/26 10:20:30;;;;;;;2.40;1.20;;;14.20;99.90;;;;;;5060801;28;20498;-62
2023/10/26 10:22:59;;;;;;;1.80;1.50;;;14.20;99.90;;;;;;5057288;28;20481;-61
2023/10/26 10:26:00;;;;;;;4.50;3.13;;;14.30;99.90;;;;;;5058984;28;20485;-61
2023/10/26 10:28:41;;;;;;;20.53;1.97;;;14.40;99.90;;;;;;5059179;28;20470;-63
2023/10/26 10:31:09;;;;;;;10.70;1.90;;;14.40;99.90;;;;;;5084576;28;20507;-63
2023/10/26 10:33:41;;;;;;;1.63;1.07;;;14.50;99.90;;;;;;5054779;28;20479;-63
2023/10/26 10:36:10;;;;;;;2.10;1.10;;;14.50;99.90;;;;;;5056948;28;20487;-63
2023/10/26 10:38:36;;;;;;;3.40;1.13;;;14.60;99.90;;;;;;5075312;28;20541;-63
2023/10/26 10:41:20;;;;;;;1.70;1.00;;;14.70;99.90;;;;;;5076762;28;20935;-63
2023/10/26 10:43:47;;;;;;;1.70;0.90;;;14.70;99.90;;;;;;5057079;28;20576;-63
2023/10/26 10:46:23;;;;;;;3.63;2.17;;;14.80;99.90;;;;;;5072464;28;20483;-63
2023/10/26 10:48:59;;;;;;;1.80;1.00;;;14.70;99.90;;;;;;5075155;28;20489;-64
2023/10/26 10:51:31;;;;;;;7.40;1.20;;;14.80;99.90;;;;;;5058173;28;20916;-63
2023/10/26 10:53:58;;;;;;;1.73;0.90;;;14.90;99.90;;;;;;5077523;28;20569;-63
2023/10/26 10:56:26;;;;;;;1.67;0.87;;;14.90;99.90;;;;;;5062198;28;20548;-63
2023/10/26 10:58:55;;;;;;;1.70;1.20;;;14.80;99.90;;;;;;5069839;28;20485;-63
2023/10/26 11:01:23;;;;;;;19.20;2.00;;;14.80;99.90;;;;;;5082928;28;20538;-63
2023/10/26 11:03:51;;;;;;;1.93;1.07;;;14.80;99.90;;;;;;5065247;28;20481;-63
2023/10/26 11:06:20;;;;;;;2.77;1.17;;;14.90;99.90;;;;;;5042537;28;20489;-63
2023/10/26 11:08:48;;;;;;;1.80;1.10;;;14.90;99.90;;;;;;5078900;28;20475;-63
2023/10/26 11:11:27;;;;;;;2.00;1.10;;;14.80;99.90;;;;;;5047474;28;20481;-63
2023/10/26 11:14:08;;;;;;;6.23;1.07;;;14.70;99.90;;;;;;5052479;28;20852;-63
2023/10/26 11:16:36;;;;;;;1.97;0.90;;;14.60;99.90;;;;;;5058471;28;20559;-63
2023/10/26 11:19:04;;;;;;;8.60;1.60;;;14.60;99.90;;;;;;5056639;28;20562;-63
2023/10/26 11:21:30;;;;;;;3.13;1.23;;;14.70;99.90;;;;;;5059418;28;21216;-63
2023/10/26 11:23:59;;;;;;;4.70;1.23;;;14.70;99.90;;;;;;5049140;28;20486;-63
2023/10/26 11:26:25;;;;;;;10.40;1.83;;;14.70;99.90;;;;;;5047032;28;20628;-63
2023/10/26 11:28:52;;;;;;;7.20;1.73;;;14.80;99.90;;;;;;5055286;28;20502;-62
2023/10/26 11:31:39;;;;;;;7.53;1.40;;;14.70;99.90;;;;;;5049625;28;20609;-62
2023/10/26 11:34:07;;;;;;;2.17;1.40;;;14.70;99.90;;;;;;5059818;28;20470;-62
2023/10/26 11:36:34;;;;;;;3.30;1.63;;;14.70;99.90;;;;;;5052258;28;20565;-61
2023/10/26 11:39:03;;;;;;;4.67;1.57;;;14.70;99.90;;;;;;5044990;28;20554;-62
2023/10/26 11:41:29;;;;;;;18.37;2.13;;;14.70;99.90;;;;;;5064657;28;20566;-63
2023/10/26 11:43:56;;;;;;;2.60;1.63;;;14.70;99.90;;;;;;5045798;28;20905;-63
2023/10/26 11:46:31;;;;;;;22.13;3.53;;;14.80;99.90;;;;;;5052004;28;20573;-63
2023/10/26 11:48:57;;;;;;;4.80;1.40;;;14.70;99.90;;;;;;5061770;28;20572;-63
2023/10/26 11:51:25;;;;;;;8.20;3.73;;;14.80;99.90;;;;;;5054558;28;20466;-65
2023/10/26 11:53:55;;;;;;;9.53;2.37;;;;;;;;;;5066649;28;20478;-64
2023/10/26 11:56:24;;;;;;;15.40;2.13;;;14.90;99.90;;;;;;5049979;28;21101;-64
2023/10/26 11:58:51;;;;;;;6.97;2.33;;;14.90;99.90;;;;;;5035929;28;20501;-65
2023/10/26 12:01:18;;;;;;;8.90;2.57;;;15.00;99.90;;;;;;5051189;28;20510;-64
2023/10/26 12:03:47;;;;;;;8.47;2.83;;;15.10;99.90;;;;;;5055543;28;20554;-63
2023/10/26 12:06:14;;;;;;;10.53;2.20;;;15.10;99.90;;;;;;5048355;28;20493;-64
2023/10/26 12:08:41;;;;;;;9.47;2.20;;;15.20;99.90;;;;;;5054812;28;21063;-64
2023/10/26 12:11:07;;;;;;;15.17;2.47;;;15.20;99.90;;;;;;5044729;28;20661;-64
2023/10/26 12:13:37;;;;;;;14.20;3.20;;;15.20;99.90;;;;;;5055729;28;20489;-63
2023/10/26 12:16:05;;;;;;;11.93;2.30;;;15.40;99.90;;;;;;5053492;28;20517;-63
2023/10/26 12:18:34;;;;;;;8.20;1.90;;;15.40;99.90;;;;;;5065027;28;20495;-63
2023/10/26 12:21:01;;;;;;;11.23;2.60;;;15.40;99.90;;;;;;5043684;28;20482;-63
2023/10/26 12:23:28;;;;;;;7.30;2.47;;;15.40;99.90;;;;;;5049693;28;20469;-63
2023/10/26 12:25:55;;;;;;;12.10;2.20;;;15.50;99.90;;;;;;5056068;28;20488;-63
2023/10/26 12:28:22;;;;;;;10.57;2.23;;;15.60;99.90;;;;;;5068378;28;20481;-64
2023/10/26 12:30:51;;;;;;;16.77;2.40;;;15.60;99.90;;;;;;5053207;28;20477;-63
2023/10/26 12:33:16;;;;;;;17.50;3.67;;;15.50;99.90;;;;;;5054078;28;21028;-63
2023/10/26 12:35:43;;;;;;;8.30;2.47;;;15.60;99.90;;;;;;5056779;28;20479;-64
2023/10/26 12:38:10;;;;;;;9.67;2.83;;;15.50;99.90;;;;;;5051148;28;20762;-64
2023/10/26 12:40:36;;;;;;;9.63;3.07;;;15.50;99.90;;;;;;5048200;28;20470;-62
2023/10/26 12:43:04;;;;;;;11.53;2.77;;;15.50;99.90;;;;;;5052447;28;20483;-62
2023/10/26 12:45:31;;;;;;;11.03;3.90;;;15.50;99.90;;;;;;5058504;28;20574;-62
2023/10/26 12:47:59;;;;;;;7.60;3.10;;;15.50;99.90;;;;;;5058205;28;20525;-61
2023/10/26 12:50:26;;;;;;;17.17;2.90;;;15.50;99.90;;;;;;5023167;28;20531;-63
2023/10/26 12:52:54;;;;;;;14.17;3.10;;;15.50;99.90;;;;;;5064257;28;20478;-64